createdAt,value
2022-12-05T00:00:21.527Z,25.50
2022-12-05T00:02:55.562Z,25.50
2022-12-05T00:05:30.868Z,25.50
2022-12-05T00:08:05.026Z,25.50
2022-12-05T00:10:39.434Z,25.50
2022-12-05T00:13:13.315Z,25.50
2022-12-05T00:15:47.322Z,25.50
2022-12-05T00:18:21.239Z,25.40
2022-12-05T00:20:56.514Z,25.50
2022-12-05T00:23:30.594Z,25.40
2022-12-05T00:26:06.064Z,25.40
2022-12-05T00:28:41.207Z,25.40
2022-12-05T00:31:19.471Z,25.40
2022-12-05T00:33:54.225Z,25.40
2022-12-05T00:36:33.894Z,25.40
2022-12-05T00:39:09.845Z,25.40
2022-12-05T00:41:44.483Z,25.40
2022-12-05T00:44:18.638Z,25.40
2022-12-05T00:46:52.543Z,25.30
2022-12-05T00:49:26.559Z,25.30
2022-12-05T00:52:01.906Z,25.30
2022-12-05T00:54:36.213Z,25.30
2022-12-05T00:57:10.268Z,25.30
2022-12-05T00:59:44.480Z,25.30
2022-12-05T01:02:18.480Z,25.30
2022-12-05T01:04:52.467Z,25.30
2022-12-05T01:07:27.916Z,25.30
2022-12-05T01:10:01.816Z,25.20
2022-12-05T01:12:36.564Z,25.20
2022-12-05T01:15:11.999Z,25.30
2022-12-05T01:17:46.079Z,25.30
2022-12-05T01:20:20.241Z,25.20
2022-12-05T01:22:55.739Z,25.30
2022-12-05T01:25:29.825Z,25.30
2022-12-05T01:28:04.115Z,25.20
2022-12-05T01:30:40.636Z,25.20
2022-12-05T01:33:15.290Z,25.20
2022-12-05T01:35:49.682Z,25.20
2022-12-05T01:38:25.478Z,25.20
2022-12-05T01:41:03.820Z,25.20
2022-12-05T01:43:57.685Z,25.20
2022-12-05T01:46:34.032Z,25.20
2022-12-05T01:49:12.431Z,25.20
2022-12-05T01:51:48.985Z,25.20
2022-12-05T01:54:24.940Z,25.20
2022-12-05T01:57:02.667Z,25.20
2022-12-05T01:59:40.450Z,25.20
2022-12-05T02:02:14.987Z,25.20
2022-12-05T02:05:00.366Z,25.20
2022-12-05T02:07:35.191Z,25.20
2022-12-05T02:10:11.894Z,25.20
2022-12-05T02:12:47.328Z,25.20
2022-12-05T02:15:33.158Z,25.20
2022-12-05T02:18:20.038Z,25.20
2022-12-05T02:21:11.893Z,25.20
2022-12-05T02:24:07.407Z,25.20
2022-12-05T02:26:57.444Z,25.20
2022-12-05T02:29:55.234Z,25.20
2022-12-05T02:32:39.541Z,25.20
2022-12-05T02:35:26.112Z,25.20
2022-12-05T02:38:09.371Z,25.20
2022-12-05T02:40:51.730Z,25.20
2022-12-05T02:43:33.538Z,25.20
2022-12-05T02:46:14.235Z,25.20
2022-12-05T02:48:52.099Z,25.20
2022-12-05T02:51:30.760Z,25.20
2022-12-05T02:54:09.533Z,25.20
2022-12-05T02:56:47.549Z,25.20
2022-12-05T02:59:23.471Z,25.20
2022-12-05T03:01:59.251Z,25.20
2022-12-05T03:04:34.130Z,25.20
2022-12-05T03:07:13.513Z,25.20
2022-12-05T03:09:52.751Z,25.10
2022-12-05T03:12:30.672Z,25.10
2022-12-05T03:15:10.195Z,25.10
2022-12-05T03:17:49.545Z,25.20
2022-12-05T03:20:29.390Z,25.20
2022-12-05T03:23:07.581Z,25.10
2022-12-05T03:25:50.016Z,25.20
2022-12-05T03:28:29.079Z,25.20
2022-12-05T03:31:09.911Z,25.20
2022-12-05T03:33:50.874Z,25.20
2022-12-05T03:36:28.685Z,25.10
2022-12-05T03:39:08.741Z,25.10
2022-12-05T03:41:48.408Z,25.10
2022-12-05T03:44:30.512Z,25.10
2022-12-05T03:47:13.741Z,25.10
2022-12-05T03:49:52.307Z,25.20
2022-12-05T03:52:38.015Z,25.20
2022-12-05T03:55:27.747Z,25.10
2022-12-05T03:58:07.317Z,25.10
2022-12-05T04:00:44.357Z,25.20
2022-12-05T04:03:22.214Z,25.10
2022-12-05T04:06:02.867Z,25.20
2022-12-05T04:08:40.769Z,25.20
2022-12-05T04:11:19.832Z,25.20
2022-12-05T04:13:56.480Z,25.10
2022-12-05T04:16:52.447Z,25.10
2022-12-05T04:19:50.169Z,25.20
2022-12-05T04:22:25.353Z,25.10
2022-12-05T04:25:18.538Z,25.10
2022-12-05T04:27:58.306Z,25.20
2022-12-05T04:30:38.347Z,25.10
2022-12-05T04:33:16.647Z,25.10
2022-12-05T04:35:55.937Z,25.10
2022-12-05T04:38:37.087Z,25.10
2022-12-05T04:41:15.336Z,25.10
2022-12-05T04:43:51.145Z,25.20
2022-12-05T04:46:26.552Z,25.20
2022-12-05T04:49:03.736Z,25.20
2022-12-05T04:51:39.642Z,25.20
2022-12-05T04:54:23.725Z,25.20
2022-12-05T04:57:04.589Z,25.20
2022-12-05T04:59:38.613Z,25.20
2022-12-05T05:02:16.314Z,25.30
2022-12-05T05:04:53.646Z,25.20
2022-12-05T05:07:28.595Z,25.30
2022-12-05T05:10:04.068Z,25.30
2022-12-05T05:12:38.168Z,25.30
2022-12-05T05:15:12.459Z,25.30
2022-12-05T05:17:46.437Z,25.30
2022-12-05T05:20:27.339Z,25.30
2022-12-05T05:23:01.478Z,25.30
2022-12-05T05:25:36.791Z,25.30
2022-12-05T05:28:10.842Z,25.30
2022-12-05T05:30:44.773Z,25.30
2022-12-05T05:33:18.859Z,25.30
2022-12-05T05:35:52.754Z,25.30
2022-12-05T05:38:26.763Z,25.30
2022-12-05T05:41:02.322Z,25.20
2022-12-05T05:43:36.366Z,25.20
2022-12-05T05:46:10.887Z,25.20
2022-12-05T05:48:44.899Z,25.20
2022-12-05T05:51:20.485Z,25.20
2022-12-05T05:53:54.826Z,25.20
2022-12-05T05:56:30.962Z,25.20
2022-12-05T05:59:05.562Z,25.20
2022-12-05T06:01:39.535Z,25.20
2022-12-05T06:04:13.512Z,25.20
2022-12-05T06:06:47.561Z,25.20
2022-12-05T06:09:21.510Z,25.20
2022-12-05T06:11:56.928Z,25.20
2022-12-05T06:14:30.949Z,25.20
2022-12-05T06:17:05.295Z,25.20
2022-12-05T06:19:39.432Z,25.20
2022-12-05T06:22:13.429Z,25.20
2022-12-05T06:24:48.045Z,25.20
2022-12-05T06:27:23.468Z,25.20
2022-12-05T06:29:57.588Z,25.10
2022-12-05T06:32:31.853Z,25.10
2022-12-05T06:35:15.412Z,25.10
2022-12-05T06:37:49.544Z,25.10
2022-12-05T06:40:24.000Z,25.10
2022-12-05T06:42:59.931Z,25.10
2022-12-05T06:45:33.843Z,25.10
2022-12-05T06:48:08.460Z,25.20
2022-12-05T06:50:48.763Z,25.10
2022-12-05T06:53:22.764Z,25.20
2022-12-05T06:55:58.049Z,25.10
2022-12-05T06:58:33.634Z,25.10
2022-12-05T07:01:28.661Z,25.10
2022-12-05T07:04:03.612Z,25.10
2022-12-05T07:06:37.684Z,25.10
2022-12-05T07:09:12.242Z,25.10
2022-12-05T07:11:48.828Z,25.10
2022-12-05T07:14:46.283Z,25.10
2022-12-05T07:17:18.311Z,25.10
2022-12-05T07:19:53.443Z,25.10
2022-12-05T07:22:27.448Z,25.10
2022-12-05T07:25:01.457Z,25.00
2022-12-05T07:27:35.475Z,25.10
2022-12-05T07:30:11.883Z,25.00
2022-12-05T07:32:46.060Z,25.00
2022-12-05T07:35:20.033Z,25.00
2022-12-05T07:37:53.941Z,25.00
2022-12-05T07:40:28.034Z,25.00
2022-12-05T07:43:01.961Z,25.00
2022-12-05T07:45:37.627Z,25.00
2022-12-05T07:48:16.978Z,25.00
2022-12-05T07:50:52.421Z,25.00
2022-12-05T07:53:26.340Z,25.00
2022-12-05T07:56:01.335Z,25.00
2022-12-05T07:58:36.493Z,25.00
2022-12-05T08:01:13.872Z,25.10
2022-12-05T08:03:48.363Z,25.10
2022-12-05T08:06:24.684Z,25.00
2022-12-05T08:08:59.301Z,25.10
2022-12-05T08:11:36.330Z,25.10
2022-12-05T08:14:10.392Z,25.10
2022-12-05T08:16:45.822Z,25.10
2022-12-05T08:19:19.829Z,25.10
2022-12-05T08:21:55.825Z,25.10
2022-12-05T08:24:29.878Z,25.10
2022-12-05T08:27:05.211Z,25.10
2022-12-05T08:29:39.201Z,25.10
2022-12-05T08:32:14.490Z,25.10
2022-12-05T08:34:49.059Z,25.10
2022-12-05T08:37:22.992Z,25.20
2022-12-05T08:39:57.362Z,25.10
2022-12-05T08:42:31.548Z,25.20
2022-12-05T08:45:06.257Z,25.20
2022-12-05T08:47:41.724Z,25.20
2022-12-05T08:50:15.869Z,25.20
2022-12-05T08:52:49.974Z,25.20
2022-12-05T08:55:23.994Z,25.20
2022-12-05T08:57:57.904Z,25.20
2022-12-05T09:00:32.180Z,25.20
2022-12-05T09:03:07.670Z,25.20
2022-12-05T09:05:41.949Z,25.20
2022-12-05T09:08:16.025Z,25.20
2022-12-05T09:10:50.007Z,25.20
2022-12-05T09:13:24.333Z,25.20
2022-12-05T09:15:58.566Z,25.20
2022-12-05T09:18:34.123Z,25.30
2022-12-05T09:21:09.305Z,25.20
2022-12-05T09:23:44.835Z,25.20
2022-12-05T09:26:21.329Z,25.20
2022-12-05T09:28:55.285Z,25.20
2022-12-05T09:31:30.695Z,25.20
2022-12-05T09:34:06.317Z,25.20
2022-12-05T09:36:40.368Z,25.20
2022-12-05T09:39:14.293Z,25.20
2022-12-05T09:42:33.191Z,25.20
2022-12-05T09:45:36.794Z,25.20
2022-12-05T09:48:15.269Z,25.20
2022-12-05T09:50:54.335Z,25.20
2022-12-05T09:53:30.865Z,25.30
2022-12-05T09:56:07.907Z,25.30
2022-12-05T09:58:44.957Z,25.30
2022-12-05T10:01:32.910Z,25.20
2022-12-05T10:04:30.710Z,25.30
2022-12-05T10:07:13.900Z,25.30
2022-12-05T10:09:59.307Z,25.20
2022-12-05T10:12:57.332Z,25.20
2022-12-05T10:15:35.850Z,25.30
2022-12-05T10:18:16.338Z,25.20
2022-12-05T10:20:53.574Z,25.20
2022-12-05T10:26:30.908Z,25.30
2022-12-05T10:29:19.826Z,25.20
2022-12-05T10:31:58.015Z,25.10
2022-12-05T10:34:35.528Z,25.00
2022-12-05T10:37:16.601Z,24.90
2022-12-05T10:39:55.521Z,24.80
2022-12-05T10:42:33.196Z,24.80
2022-12-05T10:45:09.796Z,24.80
2022-12-05T10:47:43.767Z,24.80
2022-12-05T10:50:30.322Z,24.80
2022-12-05T10:53:06.344Z,24.80
2022-12-05T10:56:00.072Z,24.80
2022-12-05T10:58:38.171Z,24.90
2022-12-05T11:01:16.791Z,24.90
2022-12-05T11:03:59.353Z,25.00
2022-12-05T11:06:34.273Z,25.00
2022-12-05T11:09:18.398Z,25.00
2022-12-05T11:12:02.363Z,25.00
2022-12-05T11:14:37.100Z,25.00
2022-12-05T11:17:25.835Z,25.00
2022-12-05T11:19:59.793Z,25.00
2022-12-05T11:22:36.763Z,25.10
2022-12-05T11:25:26.612Z,25.10
2022-12-05T11:28:22.819Z,25.10
2022-12-05T11:31:03.991Z,25.10
2022-12-05T11:33:38.412Z,25.10
2022-12-05T11:36:16.978Z,25.10
2022-12-05T11:38:51.505Z,25.10
2022-12-05T11:41:41.351Z,25.10
2022-12-05T11:44:41.092Z,25.10
2022-12-05T11:47:23.729Z,25.10
2022-12-05T11:50:18.963Z,25.10
2022-12-05T11:53:03.221Z,25.10
2022-12-05T11:55:44.845Z,25.10
2022-12-05T11:58:43.507Z,25.10
2022-12-05T12:01:30.094Z,25.10
2022-12-05T12:04:45.538Z,25.10
2022-12-05T12:07:31.166Z,25.10
2022-12-05T12:10:15.953Z,25.10
2022-12-05T12:12:59.511Z,25.10
2022-12-05T12:15:48.040Z,25.10
2022-12-05T12:18:48.539Z,25.20
2022-12-05T12:21:36.961Z,25.10
2022-12-05T12:24:23.005Z,25.20
2022-12-05T12:27:06.850Z,25.20
2022-12-05T12:29:56.786Z,25.20
2022-12-05T12:32:40.405Z,25.20
2022-12-05T12:35:30.548Z,25.20
2022-12-05T12:38:28.397Z,25.20
2022-12-05T12:41:10.218Z,25.30
2022-12-05T12:43:54.987Z,25.30
2022-12-05T12:46:42.532Z,25.30
2022-12-05T12:49:34.548Z,25.30
2022-12-05T12:52:15.304Z,25.30
2022-12-05T12:55:16.624Z,25.20
2022-12-05T12:58:04.713Z,25.30
2022-12-05T13:00:53.127Z,25.30
2022-12-05T13:03:32.205Z,25.30
2022-12-05T13:06:13.464Z,25.30
2022-12-05T13:08:53.081Z,25.30
2022-12-05T13:11:30.528Z,25.40
2022-12-05T13:14:06.420Z,25.40
2022-12-05T13:16:46.082Z,25.30
2022-12-05T13:19:29.131Z,25.30
2022-12-05T13:22:03.248Z,25.30
2022-12-05T13:24:38.855Z,25.40
2022-12-05T13:27:18.704Z,25.40
2022-12-05T13:29:54.865Z,25.40
2022-12-05T13:32:32.904Z,25.40
2022-12-05T13:35:12.453Z,25.40
2022-12-05T13:38:06.029Z,25.40
2022-12-05T13:41:09.431Z,25.40
2022-12-05T13:44:00.449Z,25.30
2022-12-05T13:46:42.647Z,25.30
2022-12-05T13:49:24.093Z,25.30
2022-12-05T13:52:09.498Z,25.30
2022-12-05T13:54:51.402Z,25.40
2022-12-05T13:57:49.960Z,25.30
2022-12-05T14:00:33.655Z,25.40
2022-12-05T14:03:17.198Z,25.30
2022-12-05T14:05:53.578Z,25.40
2022-12-05T14:08:53.353Z,25.40
2022-12-05T14:11:27.462Z,25.40
2022-12-05T14:14:04.869Z,25.40
2022-12-05T14:16:45.739Z,25.40
2022-12-05T14:19:52.026Z,25.40
2022-12-05T14:22:58.791Z,25.40
2022-12-05T14:25:55.944Z,25.40
2022-12-05T14:28:50.289Z,25.40
2022-12-05T14:31:39.946Z,25.50
2022-12-05T14:34:25.453Z,25.50
2022-12-05T14:37:02.761Z,25.50
2022-12-05T14:39:42.390Z,25.50
2022-12-05T14:42:31.058Z,25.50
2022-12-05T14:45:24.810Z,25.50
2022-12-05T14:48:01.947Z,25.50
2022-12-05T14:50:43.446Z,25.50
2022-12-05T14:53:36.651Z,25.50
2022-12-05T14:56:18.874Z,25.50
2022-12-05T14:58:57.077Z,25.50
2022-12-05T15:01:34.458Z,25.50
2022-12-05T15:04:19.250Z,25.50
2022-12-05T15:06:57.100Z,25.50
2022-12-05T15:09:39.071Z,25.60
2022-12-05T15:12:18.193Z,25.60
2022-12-05T15:15:01.125Z,25.60
2022-12-05T15:17:43.472Z,25.50
2022-12-05T15:20:25.896Z,25.50
2022-12-05T15:22:59.914Z,25.50
2022-12-05T15:25:34.441Z,25.50
2022-12-05T15:28:20.710Z,25.50
2022-12-05T15:30:58.201Z,25.50
2022-12-05T15:33:32.644Z,25.50
2022-12-05T15:36:08.675Z,25.50
2022-12-05T15:38:42.631Z,25.50
2022-12-05T15:41:18.106Z,25.50
2022-12-05T15:43:57.641Z,25.40
2022-12-05T15:46:32.251Z,25.40
2022-12-05T15:49:19.434Z,25.40
2022-12-05T15:51:57.438Z,25.40
2022-12-05T15:54:35.318Z,25.40
2022-12-05T15:57:13.962Z,25.40
2022-12-05T15:59:52.287Z,25.40
2022-12-05T16:02:35.307Z,25.30
2022-12-05T16:05:23.504Z,25.30
2022-12-05T16:07:59.575Z,25.30
2022-12-05T16:10:34.061Z,25.30
2022-12-05T16:13:13.506Z,25.30
2022-12-05T16:15:52.719Z,25.30
2022-12-05T16:18:29.694Z,25.30
2022-12-05T16:21:03.629Z,25.30
2022-12-05T16:23:39.081Z,25.20
2022-12-05T16:26:21.814Z,25.30
2022-12-05T16:29:01.487Z,25.20
2022-12-05T16:31:36.021Z,25.20
2022-12-05T16:34:17.046Z,25.20
2022-12-05T16:36:52.702Z,25.20
2022-12-05T16:39:29.532Z,25.20
2022-12-05T16:42:03.486Z,25.20
2022-12-05T16:45:03.198Z,25.20
2022-12-05T16:47:56.842Z,25.20
2022-12-05T16:50:35.436Z,25.20
2022-12-05T16:53:21.415Z,25.20
2022-12-05T16:55:57.738Z,25.20
2022-12-05T16:58:32.766Z,25.20
2022-12-05T17:01:08.242Z,25.20
2022-12-05T17:03:42.148Z,25.20
2022-12-05T17:06:16.469Z,25.20
2022-12-05T17:08:50.392Z,25.20
2022-12-05T17:11:28.140Z,25.20
2022-12-05T17:14:02.692Z,25.20
2022-12-05T17:16:36.743Z,25.20
2022-12-05T17:19:11.681Z,25.20
2022-12-05T17:21:46.304Z,25.20
2022-12-05T17:24:20.893Z,25.20
2022-12-05T17:26:56.267Z,25.10
2022-12-05T17:29:35.471Z,25.20
2022-12-05T17:32:11.855Z,25.20
2022-12-05T17:34:45.915Z,25.20
2022-12-05T17:37:19.837Z,25.20
2022-12-05T17:39:53.855Z,25.20
2022-12-05T17:42:29.299Z,25.20
2022-12-05T17:45:03.338Z,25.20
2022-12-05T17:47:37.317Z,25.20
2022-12-05T17:50:13.395Z,25.20
2022-12-05T17:52:47.326Z,25.20
2022-12-05T17:55:24.054Z,25.20
2022-12-05T17:57:59.459Z,25.20
2022-12-05T18:00:33.373Z,25.20
2022-12-05T18:03:07.377Z,25.20
2022-12-05T18:05:41.361Z,25.20
2022-12-05T18:08:16.655Z,25.20
2022-12-05T18:10:51.317Z,25.20
2022-12-05T18:13:26.892Z,25.20
2022-12-05T18:16:01.503Z,25.30
2022-12-05T18:18:35.443Z,25.30
2022-12-05T18:21:11.660Z,25.30
2022-12-05T18:23:45.645Z,25.30
2022-12-05T18:26:20.072Z,25.30
2022-12-05T18:28:56.993Z,25.30
2022-12-05T18:31:31.394Z,25.30
2022-12-05T18:34:05.697Z,25.30
2022-12-05T18:36:39.863Z,25.30
2022-12-05T18:39:15.220Z,25.30
2022-12-05T18:41:49.256Z,25.30
2022-12-05T18:44:24.570Z,25.30
2022-12-05T18:46:58.602Z,25.40
2022-12-05T18:49:32.511Z,25.30
2022-12-05T18:52:06.486Z,25.30
2022-12-05T18:54:40.389Z,25.40
2022-12-05T18:57:14.343Z,25.30
2022-12-05T18:59:52.108Z,25.30
2022-12-05T19:02:26.341Z,25.40
2022-12-05T19:05:00.901Z,25.40
2022-12-05T19:07:34.986Z,25.40
2022-12-05T19:10:10.576Z,25.30
2022-12-05T19:12:44.473Z,25.40
2022-12-05T19:15:19.822Z,25.30
2022-12-05T19:17:53.878Z,25.40
2022-12-05T19:20:27.814Z,25.40
2022-12-05T19:23:01.706Z,25.30
2022-12-05T19:25:35.234Z,25.30
2022-12-05T19:28:09.836Z,25.30
2022-12-05T19:30:45.446Z,25.30
2022-12-05T19:33:19.407Z,25.30
2022-12-05T19:35:53.559Z,25.20
2022-12-05T19:38:28.236Z,25.30
2022-12-05T19:41:03.230Z,25.30
2022-12-05T19:43:37.817Z,25.30
2022-12-05T19:46:15.324Z,25.20
2022-12-05T19:48:49.799Z,25.20
2022-12-05T19:51:23.795Z,25.30
2022-12-05T19:53:59.494Z,25.20
2022-12-05T19:56:34.948Z,25.30
2022-12-05T19:59:08.958Z,25.20
2022-12-05T20:01:45.022Z,25.30
2022-12-05T20:04:18.979Z,25.30
2022-12-05T20:06:52.838Z,25.30
2022-12-05T20:09:26.790Z,25.30
2022-12-05T20:12:04.195Z,25.30
2022-12-05T20:14:38.080Z,25.30
2022-12-05T20:17:13.462Z,25.30
2022-12-05T20:19:47.476Z,25.30
2022-12-05T20:22:21.431Z,25.30
2022-12-05T20:24:55.282Z,25.30
2022-12-05T20:27:28.881Z,25.30
2022-12-05T20:30:02.793Z,25.20
2022-12-05T20:32:38.312Z,25.20
2022-12-05T20:35:12.286Z,25.30
2022-12-05T20:37:46.856Z,25.20
2022-12-05T20:40:20.979Z,25.20
2022-12-05T20:42:55.627Z,25.20
2022-12-05T20:45:29.594Z,25.20
2022-12-05T20:48:05.252Z,25.20
2022-12-05T20:50:39.268Z,25.20
2022-12-05T20:53:13.317Z,25.20
2022-12-05T20:55:48.002Z,25.20
2022-12-05T20:58:22.121Z,25.20
2022-12-05T21:00:59.873Z,25.20
2022-12-05T21:03:35.764Z,25.20
2022-12-05T21:06:13.057Z,25.30
2022-12-05T21:08:46.999Z,25.30
2022-12-05T21:11:21.576Z,25.20
2022-12-05T21:13:58.142Z,25.30
2022-12-05T21:16:32.416Z,25.30
2022-12-05T21:19:09.007Z,25.30
2022-12-05T21:21:43.029Z,25.30
2022-12-05T21:24:17.078Z,25.30
2022-12-05T21:26:51.916Z,25.30
2022-12-05T21:29:25.901Z,25.30
2022-12-05T21:32:00.250Z,25.30
2022-12-05T21:34:35.729Z,25.30
2022-12-05T21:37:09.744Z,25.30
2022-12-05T21:39:43.981Z,25.30
2022-12-05T21:42:18.027Z,25.30
2022-12-05T21:44:52.085Z,25.30
2022-12-05T21:47:25.703Z,25.30
2022-12-05T21:50:01.313Z,25.30
2022-12-05T21:52:39.785Z,25.30
2022-12-05T21:55:13.789Z,25.30
2022-12-05T21:57:47.915Z,25.30
2022-12-05T22:00:22.111Z,25.30
2022-12-05T22:02:56.798Z,25.30
2022-12-05T22:05:33.384Z,25.30
2022-12-05T22:08:07.700Z,25.30
2022-12-05T22:10:41.894Z,25.30
2022-12-05T22:13:15.912Z,25.30
2022-12-05T22:15:49.904Z,25.20
2022-12-05T22:18:24.398Z,25.30
2022-12-05T22:21:00.499Z,25.30
2022-12-05T22:23:35.380Z,25.30
2022-12-05T22:26:12.794Z,25.20
2022-12-05T22:28:47.446Z,25.30
2022-12-05T22:31:22.254Z,25.30
2022-12-05T22:33:56.543Z,25.30
2022-12-05T22:36:32.281Z,25.30
2022-12-05T22:39:06.382Z,25.30
2022-12-05T22:41:40.612Z,25.30
2022-12-05T22:44:15.024Z,25.30
2022-12-05T22:46:49.149Z,25.40
2022-12-05T22:49:25.204Z,25.30
2022-12-05T22:52:00.915Z,25.40
2022-12-05T22:54:34.849Z,25.40
2022-12-05T22:57:08.877Z,25.30
2022-12-05T22:59:42.795Z,25.30
2022-12-05T23:02:17.158Z,25.40
2022-12-05T23:04:51.719Z,25.40
2022-12-05T23:07:27.755Z,25.30
2022-12-05T23:10:02.455Z,25.40
2022-12-05T23:12:37.090Z,25.40
2022-12-05T23:15:13.542Z,25.40
2022-12-05T23:17:49.374Z,25.40
2022-12-05T23:20:23.893Z,25.40
2022-12-05T23:22:59.922Z,25.30
2022-12-05T23:25:34.288Z,25.30
2022-12-05T23:28:08.780Z,25.40
2022-12-05T23:30:43.105Z,25.30
2022-12-05T23:33:17.410Z,25.30
2022-12-05T23:35:55.607Z,25.30
2022-12-05T23:38:31.575Z,25.40
2022-12-05T23:41:07.935Z,25.40
2022-12-05T23:43:43.543Z,25.40
2022-12-05T23:46:19.661Z,25.40
2022-12-05T23:48:55.412Z,25.40
2022-12-05T23:51:31.463Z,25.40
2022-12-05T23:54:08.355Z,25.40
2022-12-05T23:56:43.312Z,25.40
2022-12-05T23:59:17.741Z,25.40
